Time;durP1;ratioP1;P1;durP2;ratioP2;P2;SDS_P1;SDS_P2;PMS_P1;PMS_P2;Temp;Humidity;BMP_temperature;BMP_pressure;BME280_temperature;BME280_humidity;BME280_pressure;Samples;Min_cycle;Max_cycle;Signal;HPM_P1;HPM_P2
2021/12/13 00:04:57;;;;;;;23.88;8.77;;;5.40;99.90;;;;;;10454739;28;20113;-63
2021/12/13 00:10:07;;;;;;;23.33;9.10;;;5.40;99.90;;;;;;10449896;28;20040;-64
2021/12/13 00:15:24;;;;;;;24.55;9.93;;;5.40;99.90;;;;;;10434421;28;20079;-63
2021/12/13 00:20:39;;;;;;;24.77;9.30;;;5.40;99.90;;;;;;10462204;28;20094;-64
2021/12/13 00:25:46;;;;;;;28.40;9.60;;;5.50;99.90;;;;;;10455004;28;20384;-64
2021/12/13 00:31:06;;;;;;;27.10;10.10;;;5.50;99.90;;;;;;10429690;28;20045;-64
2021/12/13 00:36:11;;;;;;;24.38;8.63;;;5.50;99.90;;;;;;10449730;28;20786;-66
2021/12/13 00:41:17;;;;;;;23.23;8.68;;;5.40;99.90;;;;;;10442767;28;20045;-66
2021/12/13 00:46:21;;;;;;;29.48;10.77;;;5.50;99.90;;;;;;10440893;28;20491;-66
2021/12/13 00:51:36;;;;;;;34.03;9.98;;;5.40;99.90;;;;;;10459921;28;20051;-66
2021/12/13 00:57:03;;;;;;;33.30;11.10;;;5.50;99.90;;;;;;10440567;28;20087;-66
2021/12/13 01:02:19;;;;;;;32.13;10.32;;;5.40;99.90;;;;;;10427751;28;20107;-67
2021/12/13 01:08:12;;;;;;;22.88;9.60;;;5.50;99.90;;;;;;10439087;28;20152;-66
2021/12/13 01:13:22;;;;;;;27.92;10.63;;;5.50;99.90;;;;;;10427136;28;20159;-66
2021/12/13 01:25:04;;;;;;;30.27;11.43;;;5.50;99.90;;;;;;10433687;28;20127;-66
2021/12/13 01:30:05;;;;;;;30.83;9.40;;;5.50;99.90;;;;;;10453748;28;20627;-67
2021/12/13 01:35:13;;;;;;;29.02;10.32;;;5.50;99.90;;;;;;10423853;28;20072;-66
2021/12/13 01:40:15;;;;;;;26.88;9.80;;;5.60;99.90;;;;;;10424068;28;20411;-66
2021/12/13 01:45:17;;;;;;;24.60;9.60;;;5.60;99.90;;;;;;10445869;28;20075;-66
2021/12/13 01:50:31;;;;;;;28.27;10.73;;;5.60;99.90;;;;;;10457373;28;20132;-66
2021/12/13 01:55:37;;;;;;;25.77;10.20;;;5.60;99.90;;;;;;10439935;28;20069;-66
2021/12/13 02:06:01;;;;;;;23.27;9.60;;;5.70;99.90;;;;;;10432565;28;20041;-64
2021/12/13 02:11:04;;;;;;;23.98;9.07;;;5.70;99.90;;;;;;10480957;28;20075;-64
2021/12/13 02:21:35;;;;;;;51.58;15.55;;;5.70;99.90;;;;;;10460241;28;20049;-66
2021/12/13 02:26:41;;;;;;;29.05;10.35;;;5.80;99.90;;;;;;10451912;28;20147;-66
2021/12/13 02:31:43;;;;;;;20.90;8.93;;;5.70;99.90;;;;;;10443303;28;20107;-66
2021/12/13 02:36:51;;;;;;;21.63;8.15;;;5.70;99.90;;;;;;10452804;28;20072;-66
2021/12/13 02:41:54;;;;;;;19.20;7.80;;;5.70;99.90;;;;;;10435347;28;20081;-66
2021/12/13 02:46:59;;;;;;;32.00;10.25;;;5.70;99.90;;;;;;10452743;28;20079;-66
2021/12/13 02:52:05;;;;;;;24.77;8.60;;;5.70;99.90;;;;;;10432711;28;20138;-66
2021/12/13 03:03:28;;;;;;;25.75;9.73;;;5.70;99.90;;;;;;10437937;28;20048;-64
2021/12/13 03:08:53;;;;;;;25.52;9.88;;;5.60;99.90;;;;;;10451235;28;20040;-64
2021/12/13 03:14:01;;;;;;;25.05;8.80;;;5.60;99.90;;;;;;10455485;28;20491;-64
2021/12/13 03:19:21;;;;;;;21.27;8.82;;;5.70;99.90;;;;;;10445715;28;20488;-64
2021/12/13 03:24:35;;;;;;;23.83;9.15;;;5.70;99.90;;;;;;10442231;28;20132;-64
2021/12/13 03:30:02;;;;;;;22.30;9.32;;;5.70;99.90;;;;;;10452028;28;20092;-64
2021/12/13 03:35:15;;;;;;;21.92;8.80;;;5.70;99.90;;;;;;10447430;28;20438;-64
2021/12/13 03:40:22;;;;;;;25.73;9.27;;;5.70;99.90;;;;;;10436139;28;20554;-64
2021/12/13 03:45:30;;;;;;;23.40;9.20;;;5.70;99.90;;;;;;10441553;28;20434;-64
2021/12/13 03:50:45;;;;;;;22.88;8.05;;;5.80;99.90;;;;;;10425654;28;20106;-64
2021/12/13 03:55:51;;;;;;;22.65;8.20;;;5.70;99.90;;;;;;10438752;28;20107;-64
2021/12/13 04:01:03;;;;;;;24.08;8.35;;;5.70;99.90;;;;;;10433109;28;20419;-63
2021/12/13 04:06:05;;;;;;;19.55;8.88;;;5.80;99.90;;;;;;10446630;28;20048;-64
2021/12/13 04:11:09;;;;;;;19.92;7.60;;;5.90;99.90;;;;;;10445710;28;20049;-64
2021/12/13 04:16:50;;;;;;;21.25;8.68;;;5.80;99.90;;;;;;10445373;28;20491;-64
2021/12/13 04:21:59;;;;;;;20.45;8.43;;;5.90;99.90;;;;;;10442173;28;20123;-64
2021/12/13 04:27:26;;;;;;;18.52;7.82;;;5.80;99.90;;;;;;10445871;28;20075;-63
2021/12/13 04:32:33;;;;;;;20.85;7.30;;;5.80;99.90;;;;;;10429451;28;20458;-64
2021/12/13 04:37:39;;;;;;;21.05;8.07;;;5.70;99.90;;;;;;10444780;28;20068;-63
2021/12/13 04:42:42;;;;;;;26.30;8.82;;;5.80;99.90;;;;;;10453989;28;20080;-64
2021/12/13 04:47:52;;;;;;;30.40;8.55;;;5.80;99.90;;;;;;10432149;28;20080;-64
2021/12/13 04:52:55;;;;;;;23.98;7.65;;;5.80;99.90;;;;;;10438033;28;20049;-64
2021/12/13 04:58:00;;;;;;;19.73;8.00;;;5.80;99.90;;;;;;10450419;28;20068;-64
2021/12/13 05:03:04;;;;;;;24.08;8.77;;;5.80;99.90;;;;;;10428228;28;20065;-64
2021/12/13 05:08:10;;;;;;;23.60;8.00;;;5.80;99.90;;;;;;10433002;28;20083;-63
2021/12/13 05:13:16;;;;;;;22.73;8.65;;;5.80;99.90;;;;;;10448269;28;20048;-63
2021/12/13 05:18:22;;;;;;;20.27;7.85;;;5.80;99.90;;;;;;10454670;28;20555;-63
2021/12/13 05:23:26;;;;;;;24.88;8.43;;;5.80;99.90;;;;;;10450124;28;20122;-63
2021/12/13 05:28:39;;;;;;;26.90;9.23;;;5.80;99.90;;;;;;10452732;28;20048;-63
2021/12/13 05:33:42;;;;;;;23.40;8.40;;;5.80;99.90;;;;;;10453474;28;20090;-63
2021/12/13 05:38:47;;;;;;;23.17;9.63;;;5.80;99.90;;;;;;10428927;28;20077;-63
2021/12/13 05:43:55;;;;;;;29.27;9.27;;;5.80;99.90;;;;;;10431298;28;20053;-63
2021/12/13 05:49:02;;;;;;;26.77;9.00;;;5.80;99.90;;;;;;10425905;28;20122;-63
2021/12/13 05:54:15;;;;;;;23.30;9.60;;;5.80;99.90;;;;;;10450984;28;20094;-63
2021/12/13 05:59:21;;;;;;;24.35;8.82;;;5.90;99.90;;;;;;10440792;28;20048;-63
2021/12/13 06:04:45;;;;;;;24.30;9.18;;;5.90;99.90;;;;;;10438826;28;20040;-63
2021/12/13 06:09:57;;;;;;;23.58;9.38;;;6.00;99.90;;;;;;10430436;28;20110;-63
2021/12/13 06:15:31;;;;;;;21.33;8.45;;;6.00;99.90;;;;;;10422703;28;20560;-63
2021/12/13 06:20:35;;;;;;;19.75;8.27;;;6.10;99.90;;;;;;10432103;28;20472;-63
2021/12/13 06:25:40;;;;;;;19.27;7.82;;;6.10;99.90;;;;;;10438119;28;20049;-63
2021/12/13 06:30:42;;;;;;;22.75;8.63;;;6.00;99.90;;;;;;10439541;28;20134;-63
2021/12/13 06:35:48;;;;;;;24.20;9.70;;;6.10;99.90;;;;;;10438003;28;20049;-63
2021/12/13 06:40:56;;;;;;;21.10;8.93;;;6.10;99.90;;;;;;10458063;28;20073;-63
2021/12/13 06:46:22;;;;;;;19.88;8.18;;;6.10;99.90;;;;;;10459128;28;20568;-63
2021/12/13 06:51:47;;;;;;;19.35;7.40;;;6.00;99.90;;;;;;10455672;28;20053;-63
2021/12/13 06:56:55;;;;;;;23.77;8.00;;;6.00;99.90;;;;;;10448668;28;20135;-63
2021/12/13 07:02:27;;;;;;;18.00;6.70;;;5.90;99.90;;;;;;10447769;28;20037;-63
2021/12/13 07:08:01;;;;;;;18.50;7.95;;;5.90;99.90;;;;;;10453745;28;20041;-63
2021/12/13 07:13:07;;;;;;;19.55;7.05;;;6.00;99.90;;;;;;10451148;28;20258;-63
2021/12/13 07:18:21;;;;;;;18.17;7.15;;;6.00;99.90;;;;;;10462568;28;20556;-63
2021/12/13 07:23:23;;;;;;;20.33;7.47;;;6.00;99.90;;;;;;10463043;28;20551;-63
2021/12/13 07:28:36;;;;;;;17.20;7.03;;;6.10;99.90;;;;;;10454632;28;20045;-63
2021/12/13 07:33:42;;;;;;;16.88;6.65;;;6.20;99.90;;;;;;10453185;28;20443;-63
2021/12/13 07:38:56;;;;;;;16.02;6.30;;;6.30;99.90;;;;;;10437311;28;20562;-63
2021/12/13 07:43:58;;;;;;;15.95;6.45;;;6.30;99.90;;;;;;10447204;28;20088;-63
2021/12/13 07:49:08;;;;;;;16.48;7.95;;;6.20;99.90;;;;;;10442098;28;20107;-63
2021/12/13 07:54:13;;;;;;;19.38;7.97;;;6.30;99.90;;;;;;10439893;28;20061;-63
2021/12/13 07:59:30;;;;;;;17.42;7.40;;;6.30;99.90;;;;;;10459045;28;20037;-63
2021/12/13 08:04:55;;;;;;;25.93;9.03;;;6.20;99.90;;;;;;10442408;28;20110;-63
2021/12/13 08:10:20;;;;;;;28.17;12.60;;;6.20;99.90;;;;;;10434734;28;20052;-63
2021/12/13 08:15:35;;;;;;;15.45;6.72;;;6.20;99.90;;;;;;10458035;28;20056;-63
2021/12/13 08:20:45;;;;;;;16.40;7.60;;;6.20;99.90;;;;;;10450801;28;20041;-62
2021/12/13 08:25:51;;;;;;;19.90;7.97;;;6.20;99.90;;;;;;10453906;28;20102;-62
2021/12/13 08:30:56;;;;;;;20.05;8.30;;;6.30;99.90;;;;;;10457466;28;20087;-62
2021/12/13 08:36:13;;;;;;;17.20;7.28;;;6.30;99.90;;;;;;10458858;28;20060;-63
2021/12/13 08:41:15;;;;;;;17.75;7.68;;;6.40;99.90;;;;;;10436216;28;20092;-62
2021/12/13 08:46:31;;;;;;;17.00;7.22;;;6.40;99.90;;;;;;10446261;28;20044;-62
2021/12/13 08:51:34;;;;;;;16.92;7.75;;;6.40;99.90;;;;;;10436530;28;20491;-62
2021/12/13 08:56:50;;;;;;;22.38;8.95;;;6.50;99.90;;;;;;10444056;28;20052;-62
2021/12/13 09:01:56;;;;;;;18.67;7.43;;;6.60;99.90;;;;;;10457077;28;20120;-63
2021/12/13 09:07:03;;;;;;;20.60;8.43;;;6.60;99.90;;;;;;10435130;28;20053;-62
2021/12/13 09:12:08;;;;;;;17.27;7.90;;;6.70;99.90;;;;;;10433030;28;20122;-62
2021/12/13 09:17:26;;;;;;;20.40;7.65;;;6.80;99.90;;;;;;10426020;28;20189;-62
2021/12/13 09:22:33;;;;;;;16.20;7.45;;;6.90;99.90;;;;;;10447373;28;20109;-62
2021/12/13 09:27:40;;;;;;;15.55;7.20;;;6.90;99.90;;;;;;10434091;28;20503;-62
2021/12/13 09:32:59;;;;;;;20.13;8.43;;;6.90;99.90;;;;;;10436633;28;20082;-63
2021/12/13 09:38:25;;;;;;;16.73;7.50;;;7.00;99.90;;;;;;10430339;28;20041;-62
2021/12/13 09:44:05;;;;;;;17.10;8.63;;;7.10;99.90;;;;;;10450795;28;20099;-62
2021/12/13 09:49:21;;;;;;;18.63;8.93;;;7.40;99.90;;;;;;10436263;28;20041;-62
2021/12/13 09:54:28;;;;;;;16.88;7.88;;;7.40;99.90;;;;;;10444484;28;20077;-63
2021/12/13 09:59:43;;;;;;;18.50;8.25;;;7.30;99.90;;;;;;10441306;28;20070;-63
2021/12/13 10:04:49;;;;;;;19.75;8.50;;;7.30;99.90;;;;;;10432677;28;20126;-62
2021/12/13 10:10:01;;;;;;;20.17;8.63;;;7.30;99.90;;;;;;10433038;28;20056;-62
2021/12/13 10:15:25;;;;;;;24.98;9.90;;;7.20;99.90;;;;;;10425316;28;20064;-63
2021/12/13 10:20:30;;;;;;;18.33;9.98;;;7.30;99.90;;;;;;10458566;28;20044;-65
2021/12/13 10:25:42;;;;;;;23.58;9.93;;;7.20;99.90;;;;;;10457064;28;20044;-63
2021/12/13 10:30:50;;;;;;;25.63;10.13;;;7.30;99.90;;;;;;10468229;28;20094;-63
2021/12/13 10:35:54;;;;;;;26.55;11.40;;;7.30;99.90;;;;;;10448732;28;20069;-63
2021/12/13 10:41:21;;;;;;;24.38;10.23;;;7.40;99.90;;;;;;10451669;28;20410;-63
2021/12/13 10:46:30;;;;;;;19.95;8.85;;;7.50;99.90;;;;;;10439974;28;20048;-62
2021/12/13 10:51:41;;;;;;;22.45;9.85;;;7.60;99.90;;;;;;10447366;28;20150;-65
2021/12/13 10:56:51;;;;;;;17.20;8.25;;;7.70;99.90;;;;;;10462664;28;20517;-63
2021/12/13 11:01:56;;;;;;;16.00;8.35;;;7.60;99.90;;;;;;10451693;28;20045;-63
2021/12/13 11:07:00;;;;;;;19.58;8.90;;;7.90;99.90;;;;;;10446245;28;20041;-63
2021/12/13 11:12:07;;;;;;;19.80;8.75;;;7.90;99.90;;;;;;10447948;28;20068;-64
2021/12/13 11:17:15;;;;;;;21.13;9.02;;;8.00;99.90;;;;;;10429717;28;20040;-63
2021/12/13 11:22:28;;;;;;;17.95;9.15;;;7.80;99.90;;;;;;10457910;28;20131;-63
2021/12/13 11:27:33;;;;;;;21.40;9.65;;;7.90;99.90;;;;;;10445885;28;20056;-63
2021/12/13 11:32:34;;;;;;;23.33;9.38;;;8.10;99.90;;;;;;10438803;28;20541;-63
2021/12/13 11:38:13;;;;;;;19.27;8.95;;;8.10;99.90;;;;;;10444527;28;20041;-63
2021/12/13 11:43:55;;;;;;;20.50;9.20;;;8.20;99.90;;;;;;10433510;28;20045;-63
2021/12/13 11:49:24;;;;;;;16.15;8.15;;;8.30;99.90;;;;;;10440048;28;20040;-63
2021/12/13 11:54:50;;;;;;;14.50;7.50;;;8.40;99.90;;;;;;10438021;28;20061;-64
2021/12/13 12:00:19;;;;;;;18.60;8.10;;;8.40;99.90;;;;;;10436411;28;20068;-64
2021/12/13 12:06:02;;;;;;;19.60;8.82;;;8.50;99.90;;;;;;10441154;28;20059;-63
2021/12/13 12:11:29;;;;;;;18.77;9.20;;;8.50;99.90;;;;;;10437488;28;20064;-63
2021/12/13 12:16:36;;;;;;;19.02;10.35;;;8.30;99.90;;;;;;10429031;28;20044;-62
2021/12/13 12:21:41;;;;;;;18.02;9.88;;;8.10;99.90;;;;;;10436414;28;20049;-63
2021/12/13 12:26:48;;;;;;;26.15;10.25;;;8.20;99.90;;;;;;10446542;28;20111;-64
2021/12/13 12:32:19;;;;;;;21.40;9.80;;;8.20;99.90;;;;;;10428607;28;20057;-61
2021/12/13 12:37:53;;;;;;;20.30;8.65;;;8.20;99.90;;;;;;10421543;28;20036;-60
2021/12/13 12:42:59;;;;;;;19.00;9.18;;;8.30;99.90;;;;;;10433906;28;20045;-61
2021/12/13 12:48:15;;;;;;;17.02;9.38;;;8.30;99.90;;;;;;10459525;28;20494;-61
2021/12/13 12:53:41;;;;;;;23.13;9.38;;;8.30;99.90;;;;;;10452273;28;20514;-61
2021/12/13 12:58:51;;;;;;;21.38;9.75;;;8.30;99.90;;;;;;10443851;28;20048;-60
2021/12/13 13:04:06;;;;;;;18.92;8.65;;;8.40;99.90;;;;;;10453318;28;20928;-60
2021/12/13 13:09:10;;;;;;;16.67;7.55;;;8.40;99.90;;;;;;10427495;28;20562;-61
2021/12/13 13:14:16;;;;;;;19.75;8.40;;;8.30;99.90;;;;;;10448509;28;20040;-61
2021/12/13 13:19:31;;;;;;;21.92;8.75;;;8.40;99.90;;;;;;10437681;28;20052;-60
2021/12/13 13:24:42;;;;;;;20.65;9.15;;;8.50;99.90;;;;;;10446372;28;20970;-62
2021/12/13 13:29:44;;;;;;;16.98;9.18;;;8.50;99.90;;;;;;10451177;28;20045;-63
2021/12/13 13:34:51;;;;;;;21.05;9.05;;;8.50;99.90;;;;;;10450870;28;20118;-63
2021/12/13 13:40:02;;;;;;;20.08;9.20;;;8.60;99.90;;;;;;10428127;28;20056;-63
2021/12/13 13:45:24;;;;;;;19.67;9.93;;;8.50;99.90;;;;;;10443798;28;20084;-62
2021/12/13 13:50:31;;;;;;;18.30;9.30;;;8.60;99.90;;;;;;10437766;28;20475;-62
2021/12/13 13:55:39;;;;;;;22.07;8.87;;;8.60;99.90;;;;;;10425638;28;20511;-64
2021/12/13 14:00:52;;;;;;;22.88;9.35;;;8.90;99.90;;;;;;10441991;28;20052;-66
2021/12/13 14:05:56;;;;;;;16.45;8.35;;;9.00;99.90;;;;;;10440347;28;20053;-66
2021/12/13 14:11:11;;;;;;;16.25;8.50;;;8.80;99.90;;;;;;10450709;28;20067;-66
2021/12/13 14:16:20;;;;;;;18.23;8.55;;;8.90;99.90;;;;;;10437310;28;20072;-66
2021/12/13 14:21:26;;;;;;;15.43;8.02;;;8.90;99.90;;;;;;10445025;28;20079;-66
2021/12/13 14:26:30;;;;;;;16.73;7.47;;;8.80;99.90;;;;;;10446373;28;20053;-66
2021/12/13 14:31:41;;;;;;;21.25;8.57;;;8.80;99.90;;;;;;10423311;28;20064;-65
2021/12/13 14:36:48;;;;;;;21.33;10.48;;;8.80;99.90;;;;;;10442345;28;20036;-66
2021/12/13 14:41:55;;;;;;;23.85;10.48;;;8.80;99.90;;;;;;10430384;28;20045;-66
2021/12/13 14:46:59;;;;;;;;;;;8.90;99.90;;;;;;10437166;28;20041;-66
2021/12/13 14:52:06;;;;;;;20.20;8.40;;;8.80;99.90;;;;;;10443621;28;19925;-66
2021/12/13 14:57:13;;;;;;;18.35;9.98;;;8.70;99.90;;;;;;10438134;28;20076;-65
2021/12/13 15:02:49;;;;;;;22.45;11.68;;;8.70;99.90;;;;;;10440155;28;20857;-65
2021/12/13 15:07:51;;;;;;;20.25;9.80;;;8.70;99.90;;;;;;10440855;28;20118;-65
2021/12/13 15:12:53;;;;;;;19.95;9.23;;;8.60;99.90;;;;;;10448558;28;20061;-63
2021/12/13 15:18:04;;;;;;;16.73;8.25;;;8.60;99.90;;;;;;10458042;28;20075;-62
2021/12/13 15:23:09;;;;;;;19.33;8.80;;;8.50;99.90;;;;;;10437384;28;20068;-63
2021/12/13 15:28:29;;;;;;;17.10;7.85;;;8.50;99.90;;;;;;10439169;28;20097;-63
2021/12/13 15:33:35;;;;;;;21.75;9.10;;;8.50;99.90;;;;;;10449475;28;20189;-64
2021/12/13 15:38:38;;;;;;;19.25;9.05;;;8.40;99.90;;;;;;10434118;28;20069;-65
2021/12/13 15:43:42;;;;;;;20.20;8.35;;;8.40;99.90;;;;;;10448976;28;20057;-65
2021/12/13 15:54:21;;;;;;;19.30;8.45;;;8.30;99.90;;;;;;10437133;28;20088;-65
2021/12/13 15:59:28;;;;;;;20.70;9.15;;;8.30;99.90;;;;;;10457621;28;20106;-65
2021/12/13 16:04:39;;;;;;;25.63;9.25;;;8.30;99.90;;;;;;10427878;28;20514;-64
2021/12/13 16:09:52;;;;;;;16.67;8.88;;;8.20;99.90;;;;;;10444727;28;20076;-65
2021/12/13 16:14:56;;;;;;;17.70;9.38;;;8.30;99.90;;;;;;10441978;28;20527;-64
2021/12/13 16:20:26;;;;;;;23.73;10.55;;;8.30;99.90;;;;;;10452237;28;20040;-64
2021/12/13 16:25:42;;;;;;;19.85;8.35;;;8.30;99.90;;;;;;10441448;28;20080;-64
2021/12/13 16:30:46;;;;;;;19.88;9.93;;;8.20;99.90;;;;;;10432148;28;20449;-64
2021/12/13 16:35:56;;;;;;;32.25;12.07;;;8.20;99.90;;;;;;10442955;28;20532;-64
2021/12/13 16:41:03;;;;;;;21.15;9.35;;;8.20;99.90;;;;;;10437644;28;20081;-64
2021/12/13 16:46:11;;;;;;;19.27;8.30;;;8.20;99.90;;;;;;10443271;28;20439;-64
2021/12/13 16:51:19;;;;;;;24.13;9.52;;;8.20;99.90;;;;;;10453299;28;20144;-64
2021/12/13 16:56:25;;;;;;;20.40;8.18;;;8.10;99.90;;;;;;10437417;28;20072;-64
2021/12/13 17:01:33;;;;;;;15.95;8.38;;;8.10;99.90;;;;;;10434193;28;20068;-64
2021/12/13 17:06:50;;;;;;;18.52;9.30;;;8.10;99.90;;;;;;10454330;28;20048;-64
2021/12/13 17:12:12;;;;;;;19.65;9.45;;;8.10;99.90;;;;;;10428418;28;20105;-64
2021/12/13 17:17:16;;;;;;;18.95;9.20;;;8.10;99.90;;;;;;10440338;28;20052;-64
2021/12/13 17:22:22;;;;;;;18.95;8.80;;;8.10;99.90;;;;;;10435486;28;20469;-63
2021/12/13 17:27:32;;;;;;;43.88;10.57;;;8.10;99.90;;;;;;10434419;28;20436;-63
2021/12/13 17:32:33;;;;;;;22.25;9.32;;;8.10;99.90;;;;;;10454644;28;20593;-63
2021/12/13 17:37:42;;;;;;;19.33;9.88;;;8.10;99.90;;;;;;10449201;28;20131;-64
2021/12/13 17:43:02;;;;;;;25.88;11.18;;;8.10;99.90;;;;;;10450677;28;20173;-63
2021/12/13 17:48:07;;;;;;;17.77;8.77;;;8.10;99.90;;;;;;10429219;28;20045;-65
2021/12/13 17:53:36;;;;;;;21.38;10.20;;;8.10;99.90;;;;;;10436288;28;20049;-63
2021/12/13 17:58:51;;;;;;;22.92;10.25;;;8.00;99.90;;;;;;10456031;28;20071;-63
2021/12/13 18:04:10;;;;;;;20.52;9.88;;;8.00;99.90;;;;;;10426266;28;20140;-63
2021/12/13 18:09:33;;;;;;;22.00;8.90;;;8.00;99.90;;;;;;10453075;28;20115;-64
2021/12/13 18:14:40;;;;;;;22.52;10.18;;;7.90;99.90;;;;;;10438958;28;20053;-63
2021/12/13 18:19:47;;;;;;;;;;;8.00;99.90;;;;;;10438131;28;20053;-63
2021/12/13 18:24:50;;;;;;;20.63;10.17;;;7.90;99.90;;;;;;10430667;28;19925;-63
2021/12/13 18:29:51;;;;;;;26.55;10.55;;;7.90;99.90;;;;;;10428619;28;20110;-63
2021/12/13 18:34:53;;;;;;;20.13;9.18;;;7.90;99.90;;;;;;10427930;28;20052;-64
2021/12/13 18:39:56;;;;;;;20.70;10.35;;;7.90;99.90;;;;;;10463345;28;20205;-64
2021/12/13 18:45:12;;;;;;;19.45;9.30;;;7.90;99.90;;;;;;10442114;28;20057;-65
2021/12/13 18:50:17;;;;;;;21.95;9.65;;;7.90;99.90;;;;;;10463661;28;20114;-64
2021/12/13 18:55:29;;;;;;;25.75;12.98;;;7.90;99.90;;;;;;10446257;28;20080;-64
2021/12/13 19:00:43;;;;;;;25.83;12.95;;;7.80;99.90;;;;;;10452411;28;20135;-65
2021/12/13 19:05:53;;;;;;;23.98;10.00;;;7.80;99.90;;;;;;10453720;28;20060;-64
2021/12/13 19:11:01;;;;;;;24.45;10.68;;;7.80;99.90;;;;;;10438633;28;20110;-62
2021/12/13 19:16:09;;;;;;;22.73;9.77;;;7.80;99.90;;;;;;10441248;28;20060;-62
2021/12/13 19:21:23;;;;;;;24.88;10.55;;;7.80;99.90;;;;;;10437229;28;20065;-62
2021/12/13 19:26:32;;;;;;;26.00;11.88;;;7.80;99.90;;;;;;10423955;28;20045;-63
2021/12/13 19:31:43;;;;;;;24.42;11.60;;;7.70;99.90;;;;;;10455151;28;20053;-63
2021/12/13 19:36:57;;;;;;;28.05;12.50;;;7.70;99.90;;;;;;10429863;28;20099;-63
2021/12/13 19:42:09;;;;;;;23.90;10.73;;;7.80;99.90;;;;;;10436447;28;20052;-62
2021/12/13 19:47:17;;;;;;;21.40;10.52;;;7.70;99.90;;;;;;10433420;28;20142;-63
2021/12/13 19:52:21;;;;;;;;;;;7.70;99.90;;;;;;10431926;28;20051;-63
2021/12/13 19:57:28;;;;;;;23.50;11.80;;;7.70;99.90;;;;;;10440718;28;19982;-63
2021/12/13 20:02:39;;;;;;;22.00;10.77;;;7.70;99.90;;;;;;10423422;28;20072;-62
2021/12/13 20:08:16;;;;;;;18.80;10.70;;;7.70;99.90;;;;;;10443721;28;20063;-63
2021/12/13 20:13:22;;;;;;;;;;;7.70;99.90;;;;;;10434398;28;20073;-64
2021/12/13 20:18:51;;;;;;;24.65;11.07;;;7.70;99.90;;;;;;10428185;28;20342;-63
2021/12/13 20:24:23;;;;;;;24.08;10.93;;;7.60;99.90;;;;;;10450410;28;20049;-61
2021/12/13 20:29:36;;;;;;;24.20;10.80;;;7.60;99.90;;;;;;10448156;28;20059;-63
2021/12/13 20:34:47;;;;;;;20.65;10.02;;;7.60;99.90;;;;;;10439218;28;20103;-63
2021/12/13 20:40:04;;;;;;;21.50;10.50;;;7.60;99.90;;;;;;10445046;28;21139;-62
2021/12/13 20:45:20;;;;;;;22.33;10.93;;;7.60;99.90;;;;;;10432389;28;20442;-62
2021/12/13 20:50:37;;;;;;;24.17;9.77;;;7.60;99.90;;;;;;10458402;28;20442;-62
2021/12/13 20:55:50;;;;;;;22.30;10.10;;;7.60;99.90;;;;;;10441205;28;20044;-63
2021/12/13 21:01:01;;;;;;;22.83;10.65;;;7.60;99.90;;;;;;10446356;28;20044;-62
2021/12/13 21:06:22;;;;;;;22.75;10.75;;;7.60;99.90;;;;;;10436083;28;20049;-62
2021/12/13 21:11:31;;;;;;;24.67;12.10;;;7.60;99.90;;;;;;10450068;28;20098;-62
2021/12/13 21:16:43;;;;;;;25.23;11.25;;;7.60;99.90;;;;;;10458601;28;20079;-62
2021/12/13 21:21:56;;;;;;;19.83;9.60;;;7.70;99.90;;;;;;10450583;28;20133;-63
2021/12/13 21:27:11;;;;;;;27.42;12.38;;;7.70;99.90;;;;;;10436676;28;20044;-62
2021/12/13 21:32:19;;;;;;;21.38;10.80;;;7.60;99.90;;;;;;10427518;28;29884;-62
2021/12/13 21:42:51;;;;;;;22.42;10.93;;;7.60;99.90;;;;;;10440835;28;20072;-62
2021/12/13 21:48:05;;;;;;;25.67;11.55;;;7.70;99.90;;;;;;10432495;28;20362;-62
2021/12/13 21:53:34;;;;;;;24.35;12.63;;;7.60;99.90;;;;;;10425506;28;20127;-62
2021/12/13 21:58:56;;;;;;;22.10;11.93;;;7.70;99.90;;;;;;10433962;28;20056;-62
2021/12/13 22:04:09;;;;;;;22.17;12.75;;;7.60;99.90;;;;;;10429688;28;20064;-62
2021/12/13 22:09:20;;;;;;;23.50;11.00;;;7.60;99.90;;;;;;10442600;28;20106;-62
2021/12/13 22:14:42;;;;;;;20.23;10.05;;;7.60;99.90;;;;;;10463596;28;20080;-62
2021/12/13 22:19:49;;;;;;;24.75;11.35;;;7.60;99.90;;;;;;10434124;28;20061;-63
2021/12/13 22:24:55;;;;;;;20.13;10.23;;;7.60;99.90;;;;;;10450512;28;20491;-62
2021/12/13 22:30:00;;;;;;;18.48;9.57;;;7.60;99.90;;;;;;10461190;28;20625;-62
2021/12/13 22:35:08;;;;;;;17.77;8.55;;;7.60;99.90;;;;;;10441992;28;20068;-62
2021/12/13 22:40:29;;;;;;;15.45;8.00;;;7.60;99.90;;;;;;10455527;28;20084;-62
2021/12/13 22:45:33;;;;;;;19.80;8.45;;;7.60;99.90;;;;;;10444648;28;20076;-63
2021/12/13 22:50:44;;;;;;;21.08;8.13;;;7.60;99.90;;;;;;10449170;28;20076;-63
2021/12/13 22:55:50;;;;;;;16.52;7.97;;;7.60;99.90;;;;;;10453725;28;20124;-62
2021/12/13 23:00:55;;;;;;;15.70;6.78;;;7.60;99.90;;;;;;10434739;28;20048;-62
2021/12/13 23:06:07;;;;;;;16.13;6.88;;;7.60;99.90;;;;;;10436077;28;21454;-62
2021/12/13 23:16:27;;;;;;;21.05;8.30;;;7.60;99.90;;;;;;10434474;28;20045;-63
2021/12/13 23:21:32;;;;;;;22.02;10.30;;;7.60;99.90;;;;;;10439607;28;20127;-62
2021/12/13 23:26:40;;;;;;;18.98;9.38;;;7.60;99.90;;;;;;10450478;28;20072;-62
2021/12/13 23:31:41;;;;;;;;;;;7.60;99.90;;;;;;10448991;28;20130;-62
2021/12/13 23:36:51;;;;;;;16.85;7.97;;;7.60;99.90;;;;;;10443979;28;19927;-62
2021/12/13 23:47:23;;;;;;;11.13;4.80;;;7.50;99.90;;;;;;10439987;28;20091;-62
2021/12/13 23:52:34;;;;;;;11.43;5.77;;;7.50;99.90;;;;;;10432713;28;20053;-61
2021/12/13 23:57:37;;;;;;;10.50;5.45;;;7.50;99.90;;;;;;10455899;28;20071;-62
